sensor_id;sensor_type;location;lat;lon;timestamp;P1;durP1;ratioP1;P2;durP2;ratioP2
81135;SDS011;70622;50.886;3.890;2024-02-28T00:02:13;16.20;;;8.48;;
81135;SDS011;70622;50.886;3.890;2024-02-28T00:04:39;16.20;;;8.85;;
81135;SDS011;70622;50.886;3.890;2024-02-28T00:07:06;17.00;;;8.90;;
81135;SDS011;70622;50.886;3.890;2024-02-28T00:09:31;13.77;;;8.55;;
81135;SDS011;70622;50.886;3.890;2024-02-28T00:11:57;14.70;;;8.90;;
81135;SDS011;70622;50.886;3.890;2024-02-28T00:14:23;22.58;;;9.43;;
81135;SDS011;70622;50.886;3.890;2024-02-28T00:16:48;17.67;;;9.93;;
81135;SDS011;70622;50.886;3.890;2024-02-28T00:19:15;19.65;;;10.27;;
81135;SDS011;70622;50.886;3.890;2024-02-28T00:21:42;15.55;;;8.98;;
81135;SDS011;70622;50.886;3.890;2024-02-28T00:24:08;15.57;;;10.00;;
81135;SDS011;70622;50.886;3.890;2024-02-28T00:26:34;20.60;;;10.93;;
81135;SDS011;70622;50.886;3.890;2024-02-28T00:28:59;20.13;;;10.27;;
81135;SDS011;70622;50.886;3.890;2024-02-28T00:31:25;14.55;;;8.70;;
81135;SDS011;70622;50.886;3.890;2024-02-28T00:33:51;15.13;;;8.63;;
81135;SDS011;70622;50.886;3.890;2024-02-28T00:36:16;15.10;;;8.63;;
81135;SDS011;70622;50.886;3.890;2024-02-28T00:38:43;15.18;;;9.20;;
81135;SDS011;70622;50.886;3.890;2024-02-28T00:41:08;14.13;;;8.20;;
81135;SDS011;70622;50.886;3.890;2024-02-28T00:43:34;14.05;;;8.40;;
81135;SDS011;70622;50.886;3.890;2024-02-28T00:46:00;13.23;;;8.20;;
81135;SDS011;70622;50.886;3.890;2024-02-28T00:48:25;14.73;;;8.48;;
81135;SDS011;70622;50.886;3.890;2024-02-28T00:50:52;15.90;;;8.68;;
81135;SDS011;70622;50.886;3.890;2024-02-28T00:53:19;14.20;;;8.52;;
81135;SDS011;70622;50.886;3.890;2024-02-28T00:55:45;15.85;;;8.13;;
81135;SDS011;70622;50.886;3.890;2024-02-28T00:58:11;13.88;;;7.53;;
81135;SDS011;70622;50.886;3.890;2024-02-28T01:00:36;15.70;;;7.57;;
81135;SDS011;70622;50.886;3.890;2024-02-28T01:03:02;11.48;;;7.28;;
81135;SDS011;70622;50.886;3.890;2024-02-28T01:05:29;12.38;;;7.25;;
81135;SDS011;70622;50.886;3.890;2024-02-28T01:07:55;13.50;;;7.30;;
81135;SDS011;70622;50.886;3.890;2024-02-28T01:10:21;13.90;;;7.70;;
81135;SDS011;70622;50.886;3.890;2024-02-28T01:12:47;10.95;;;6.15;;
81135;SDS011;70622;50.886;3.890;2024-02-28T01:15:12;14.18;;;6.20;;
81135;SDS011;70622;50.886;3.890;2024-02-28T01:17:38;10.55;;;6.72;;
81135;SDS011;70622;50.886;3.890;2024-02-28T01:20:04;13.50;;;6.78;;
81135;SDS011;70622;50.886;3.890;2024-02-28T01:22:32;12.10;;;7.18;;
81135;SDS011;70622;50.886;3.890;2024-02-28T01:24:58;11.30;;;7.13;;
81135;SDS011;70622;50.886;3.890;2024-02-28T01:27:24;15.07;;;7.20;;
81135;SDS011;70622;50.886;3.890;2024-02-28T01:29:49;11.40;;;7.30;;
81135;SDS011;70622;50.886;3.890;2024-02-28T01:32:15;11.52;;;6.93;;
81135;SDS011;70622;50.886;3.890;2024-02-28T01:34:40;13.93;;;6.82;;
81135;SDS011;70622;50.886;3.890;2024-02-28T01:37:06;12.65;;;7.47;;
81135;SDS011;70622;50.886;3.890;2024-02-28T01:39:32;11.38;;;7.43;;
81135;SDS011;70622;50.886;3.890;2024-02-28T01:41:57;11.98;;;7.57;;
81135;SDS011;70622;50.886;3.890;2024-02-28T01:44:23;13.90;;;7.07;;
81135;SDS011;70622;50.886;3.890;2024-02-28T01:46:49;11.43;;;6.82;;
81135;SDS011;70622;50.886;3.890;2024-02-28T01:49:15;16.30;;;6.65;;
81135;SDS011;70622;50.886;3.890;2024-02-28T01:51:41;11.52;;;6.38;;
81135;SDS011;70622;50.886;3.890;2024-02-28T01:54:08;11.65;;;6.70;;
81135;SDS011;70622;50.886;3.890;2024-02-28T01:56:34;10.57;;;6.80;;
81135;SDS011;70622;50.886;3.890;2024-02-28T01:58:59;11.18;;;7.00;;
81135;SDS011;70622;50.886;3.890;2024-02-28T02:01:26;13.13;;;7.20;;
81135;SDS011;70622;50.886;3.890;2024-02-28T02:03:52;13.00;;;6.75;;
81135;SDS011;70622;50.886;3.890;2024-02-28T02:06:18;18.95;;;6.95;;
81135;SDS011;70622;50.886;3.890;2024-02-28T02:08:44;10.18;;;6.53;;
81135;SDS011;70622;50.886;3.890;2024-02-28T02:11:10;12.15;;;7.20;;
81135;SDS011;70622;50.886;3.890;2024-02-28T02:13:47;12.77;;;6.63;;
81135;SDS011;70622;50.886;3.890;2024-02-28T02:16:14;11.77;;;6.45;;
81135;SDS011;70622;50.886;3.890;2024-02-28T02:18:39;11.88;;;6.53;;
81135;SDS011;70622;50.886;3.890;2024-02-28T02:21:05;10.52;;;6.22;;
81135;SDS011;70622;50.886;3.890;2024-02-28T02:23:34;10.82;;;6.03;;
81135;SDS011;70622;50.886;3.890;2024-02-28T02:26:00;12.60;;;7.10;;
81135;SDS011;70622;50.886;3.890;2024-02-28T02:28:26;11.90;;;6.38;;
81135;SDS011;70622;50.886;3.890;2024-02-28T02:30:52;10.93;;;6.82;;
81135;SDS011;70622;50.886;3.890;2024-02-28T02:33:17;10.48;;;7.13;;
81135;SDS011;70622;50.886;3.890;2024-02-28T02:35:43;13.93;;;6.88;;
81135;SDS011;70622;50.886;3.890;2024-02-28T02:38:09;22.98;;;6.50;;
81135;SDS011;70622;50.886;3.890;2024-02-28T02:40:34;12.82;;;6.57;;
81135;SDS011;70622;50.886;3.890;2024-02-28T02:43:00;10.27;;;5.93;;
81135;SDS011;70622;50.886;3.890;2024-02-28T02:45:25;15.80;;;6.95;;
81135;SDS011;70622;50.886;3.890;2024-02-28T02:47:51;11.55;;;6.93;;
81135;SDS011;70622;50.886;3.890;2024-02-28T02:50:17;10.95;;;6.43;;
81135;SDS011;70622;50.886;3.890;2024-02-28T02:52:42;14.85;;;6.72;;
81135;SDS011;70622;50.886;3.890;2024-02-28T02:55:08;13.35;;;7.10;;
81135;SDS011;70622;50.886;3.890;2024-02-28T02:57:33;15.05;;;7.07;;
81135;SDS011;70622;50.886;3.890;2024-02-28T03:00:00;14.45;;;6.85;;
81135;SDS011;70622;50.886;3.890;2024-02-28T03:02:26;13.13;;;6.28;;
81135;SDS011;70622;50.886;3.890;2024-02-28T03:04:52;23.55;;;7.28;;
81135;SDS011;70622;50.886;3.890;2024-02-28T03:07:17;15.05;;;7.03;;
81135;SDS011;70622;50.886;3.890;2024-02-28T03:09:43;11.77;;;6.68;;
81135;SDS011;70622;50.886;3.890;2024-02-28T03:12:08;11.40;;;6.15;;
81135;SDS011;70622;50.886;3.890;2024-02-28T03:14:35;11.15;;;6.32;;
81135;SDS011;70622;50.886;3.890;2024-02-28T03:17:01;9.00;;;6.10;;
81135;SDS011;70622;50.886;3.890;2024-02-28T03:19:27;15.90;;;7.43;;
81135;SDS011;70622;50.886;3.890;2024-02-28T03:21:52;10.98;;;7.22;;
81135;SDS011;70622;50.886;3.890;2024-02-28T03:24:18;11.90;;;6.35;;
81135;SDS011;70622;50.886;3.890;2024-02-28T03:26:44;11.73;;;6.82;;
81135;SDS011;70622;50.886;3.890;2024-02-28T03:29:09;16.52;;;6.80;;
81135;SDS011;70622;50.886;3.890;2024-02-28T03:32:18;13.95;;;6.93;;
81135;SDS011;70622;50.886;3.890;2024-02-28T03:35:05;10.87;;;6.43;;
81135;SDS011;70622;50.886;3.890;2024-02-28T03:38:32;11.32;;;6.10;;
81135;SDS011;70622;50.886;3.890;2024-02-28T03:41:38;13.45;;;6.35;;
81135;SDS011;70622;50.886;3.890;2024-02-28T03:44:45;16.02;;;7.57;;
81135;SDS011;70622;50.886;3.890;2024-02-28T03:47:59;13.32;;;6.35;;
81135;SDS011;70622;50.886;3.890;2024-02-28T03:51:00;13.65;;;7.55;;
81135;SDS011;70622;50.886;3.890;2024-02-28T03:53:26;16.70;;;7.05;;
81135;SDS011;70622;50.886;3.890;2024-02-28T03:55:51;12.65;;;6.93;;
81135;SDS011;70622;50.886;3.890;2024-02-28T03:58:17;12.70;;;6.22;;
81135;SDS011;70622;50.886;3.890;2024-02-28T04:00:43;14.00;;;6.82;;
81135;SDS011;70622;50.886;3.890;2024-02-28T04:03:10;11.80;;;7.00;;
81135;SDS011;70622;50.886;3.890;2024-02-28T04:05:36;12.15;;;7.43;;
81135;SDS011;70622;50.886;3.890;2024-02-28T04:08:02;13.88;;;7.10;;
81135;SDS011;70622;50.886;3.890;2024-02-28T04:10:27;12.30;;;6.53;;
81135;SDS011;70622;50.886;3.890;2024-02-28T04:12:53;13.13;;;6.82;;
81135;SDS011;70622;50.886;3.890;2024-02-28T04:15:19;14.63;;;6.65;;
81135;SDS011;70622;50.886;3.890;2024-02-28T04:17:44;13.15;;;7.40;;
81135;SDS011;70622;50.886;3.890;2024-02-28T04:20:11;13.75;;;6.13;;
81135;SDS011;70622;50.886;3.890;2024-02-28T04:22:37;11.52;;;7.05;;
81135;SDS011;70622;50.886;3.890;2024-02-28T04:25:04;14.25;;;5.97;;
81135;SDS011;70622;50.886;3.890;2024-02-28T04:27:31;15.45;;;6.60;;
81135;SDS011;70622;50.886;3.890;2024-02-28T04:29:57;12.02;;;6.43;;
81135;SDS011;70622;50.886;3.890;2024-02-28T04:32:23;10.90;;;7.18;;
81135;SDS011;70622;50.886;3.890;2024-02-28T04:34:49;12.63;;;6.40;;
81135;SDS011;70622;50.886;3.890;2024-02-28T04:37:14;11.68;;;6.72;;
81135;SDS011;70622;50.886;3.890;2024-02-28T04:39:40;10.63;;;5.95;;
81135;SDS011;70622;50.886;3.890;2024-02-28T04:42:06;10.77;;;6.20;;
81135;SDS011;70622;50.886;3.890;2024-02-28T04:44:32;11.80;;;6.32;;
81135;SDS011;70622;50.886;3.890;2024-02-28T04:46:58;10.98;;;6.57;;
81135;SDS011;70622;50.886;3.890;2024-02-28T04:49:23;12.73;;;6.95;;
81135;SDS011;70622;50.886;3.890;2024-02-28T04:51:49;15.05;;;7.03;;
81135;SDS011;70622;50.886;3.890;2024-02-28T04:54:15;11.45;;;6.78;;
81135;SDS011;70622;50.886;3.890;2024-02-28T04:56:41;16.67;;;8.05;;
81135;SDS011;70622;50.886;3.890;2024-02-28T04:59:07;13.90;;;8.20;;
81135;SDS011;70622;50.886;3.890;2024-02-28T05:01:33;14.00;;;8.57;;
81135;SDS011;70622;50.886;3.890;2024-02-28T05:04:00;12.15;;;8.02;;
81135;SDS011;70622;50.886;3.890;2024-02-28T05:06:27;17.23;;;9.15;;
81135;SDS011;70622;50.886;3.890;2024-02-28T05:08:53;16.77;;;9.73;;
81135;SDS011;70622;50.886;3.890;2024-02-28T05:11:18;17.27;;;10.60;;
81135;SDS011;70622;50.886;3.890;2024-02-28T05:13:44;24.17;;;11.13;;
81135;SDS011;70622;50.886;3.890;2024-02-28T05:16:13;17.10;;;10.55;;
81135;SDS011;70622;50.886;3.890;2024-02-28T05:18:39;21.67;;;10.73;;
81135;SDS011;70622;50.886;3.890;2024-02-28T05:21:05;19.35;;;11.93;;
81135;SDS011;70622;50.886;3.890;2024-02-28T05:23:30;22.50;;;11.60;;
81135;SDS011;70622;50.886;3.890;2024-02-28T05:25:56;16.63;;;11.23;;
81135;SDS011;70622;50.886;3.890;2024-02-28T05:28:22;25.17;;;11.93;;
81135;SDS011;70622;50.886;3.890;2024-02-28T05:30:48;21.70;;;11.20;;
81135;SDS011;70622;50.886;3.890;2024-02-28T05:33:14;21.45;;;11.60;;
81135;SDS011;70622;50.886;3.890;2024-02-28T05:35:40;22.67;;;12.05;;
81135;SDS011;70622;50.886;3.890;2024-02-28T05:38:06;21.17;;;12.55;;
81135;SDS011;70622;50.886;3.890;2024-02-28T05:40:31;22.15;;;12.52;;
81135;SDS011;70622;50.886;3.890;2024-02-28T05:42:57;20.33;;;12.25;;
81135;SDS011;70622;50.886;3.890;2024-02-28T05:45:23;21.67;;;13.20;;
81135;SDS011;70622;50.886;3.890;2024-02-28T05:47:48;23.88;;;12.82;;
81135;SDS011;70622;50.886;3.890;2024-02-28T05:50:14;25.42;;;12.95;;
81135;SDS011;70622;50.886;3.890;2024-02-28T05:52:41;29.10;;;14.15;;
81135;SDS011;70622;50.886;3.890;2024-02-28T05:55:07;26.52;;;14.32;;
81135;SDS011;70622;50.886;3.890;2024-02-28T05:57:33;26.73;;;13.60;;
81135;SDS011;70622;50.886;3.890;2024-02-28T05:59:59;21.83;;;14.23;;
81135;SDS011;70622;50.886;3.890;2024-02-28T06:02:24;22.48;;;13.90;;
81135;SDS011;70622;50.886;3.890;2024-02-28T06:04:50;28.40;;;14.23;;
81135;SDS011;70622;50.886;3.890;2024-02-28T06:07:16;23.45;;;14.15;;
81135;SDS011;70622;50.886;3.890;2024-02-28T06:09:41;28.00;;;13.50;;
81135;SDS011;70622;50.886;3.890;2024-02-28T06:12:07;22.35;;;14.27;;
81135;SDS011;70622;50.886;3.890;2024-02-28T06:14:33;25.17;;;14.13;;
81135;SDS011;70622;50.886;3.890;2024-02-28T06:16:58;26.27;;;14.38;;
81135;SDS011;70622;50.886;3.890;2024-02-28T06:19:24;20.30;;;13.43;;
81135;SDS011;70622;50.886;3.890;2024-02-28T06:21:49;21.33;;;12.90;;
81135;SDS011;70622;50.886;3.890;2024-02-28T06:24:15;25.65;;;16.00;;
81135;SDS011;70622;50.886;3.890;2024-02-28T06:26:41;25.73;;;14.45;;
81135;SDS011;70622;50.886;3.890;2024-02-28T06:29:08;27.17;;;14.27;;
81135;SDS011;70622;50.886;3.890;2024-02-28T06:31:34;22.58;;;13.77;;
81135;SDS011;70622;50.886;3.890;2024-02-28T06:33:59;22.58;;;12.70;;
81135;SDS011;70622;50.886;3.890;2024-02-28T06:36:25;23.33;;;13.32;;
81135;SDS011;70622;50.886;3.890;2024-02-28T06:38:51;24.42;;;15.15;;
81135;SDS011;70622;50.886;3.890;2024-02-28T06:41:16;22.95;;;13.70;;
81135;SDS011;70622;50.886;3.890;2024-02-28T06:43:42;24.75;;;14.32;;
81135;SDS011;70622;50.886;3.890;2024-02-28T06:46:08;27.00;;;14.60;;
81135;SDS011;70622;50.886;3.890;2024-02-28T06:48:34;28.80;;;14.68;;
81135;SDS011;70622;50.886;3.890;2024-02-28T06:51:00;25.08;;;14.02;;
81135;SDS011;70622;50.886;3.890;2024-02-28T06:53:25;27.98;;;15.02;;
81135;SDS011;70622;50.886;3.890;2024-02-28T06:55:51;26.25;;;14.32;;
81135;SDS011;70622;50.886;3.890;2024-02-28T06:58:17;26.73;;;15.20;;
81135;SDS011;70622;50.886;3.890;2024-02-28T07:00:42;28.90;;;14.32;;
81135;SDS011;70622;50.886;3.890;2024-02-28T07:03:08;27.38;;;14.93;;
81135;SDS011;70622;50.886;3.890;2024-02-28T07:05:34;27.52;;;15.65;;
81135;SDS011;70622;50.886;3.890;2024-02-28T07:08:00;29.08;;;15.23;;
81135;SDS011;70622;50.886;3.890;2024-02-28T07:10:26;29.95;;;15.32;;
81135;SDS011;70622;50.886;3.890;2024-02-28T07:12:51;24.23;;;14.98;;
81135;SDS011;70622;50.886;3.890;2024-02-28T07:15:17;25.02;;;13.93;;
81135;SDS011;70622;50.886;3.890;2024-02-28T07:17:45;29.30;;;15.02;;
81135;SDS011;70622;50.886;3.890;2024-02-28T07:20:11;27.95;;;15.60;;
81135;SDS011;70622;50.886;3.890;2024-02-28T07:22:37;27.13;;;14.38;;
81135;SDS011;70622;50.886;3.890;2024-02-28T07:25:03;27.05;;;14.57;;
81135;SDS011;70622;50.886;3.890;2024-02-28T07:27:30;28.27;;;15.70;;
81135;SDS011;70622;50.886;3.890;2024-02-28T07:30:05;23.67;;;14.90;;
81135;SDS011;70622;50.886;3.890;2024-02-28T07:33:21;32.10;;;15.73;;
81135;SDS011;70622;50.886;3.890;2024-02-28T07:35:48;26.20;;;14.70;;
81135;SDS011;70622;50.886;3.890;2024-02-28T07:38:17;29.92;;;15.07;;
81135;SDS011;70622;50.886;3.890;2024-02-28T07:40:45;27.95;;;14.07;;
81135;SDS011;70622;50.886;3.890;2024-02-28T07:43:12;29.13;;;14.88;;
81135;SDS011;70622;50.886;3.890;2024-02-28T07:45:39;30.77;;;14.88;;
81135;SDS011;70622;50.886;3.890;2024-02-28T07:48:05;29.15;;;14.35;;
81135;SDS011;70622;50.886;3.890;2024-02-28T07:50:31;26.30;;;13.73;;
81135;SDS011;70622;50.886;3.890;2024-02-28T07:52:57;29.98;;;14.88;;
81135;SDS011;70622;50.886;3.890;2024-02-28T07:55:22;30.88;;;14.75;;
81135;SDS011;70622;50.886;3.890;2024-02-28T07:57:51;26.85;;;15.25;;
81135;SDS011;70622;50.886;3.890;2024-02-28T08:00:18;27.00;;;15.98;;
81135;SDS011;70622;50.886;3.890;2024-02-28T08:02:45;31.92;;;15.77;;
81135;SDS011;70622;50.886;3.890;2024-02-28T08:05:12;28.17;;;13.88;;
81135;SDS011;70622;50.886;3.890;2024-02-28T08:07:39;22.17;;;14.38;;
81135;SDS011;70622;50.886;3.890;2024-02-28T08:10:06;26.00;;;14.77;;
81135;SDS011;70622;50.886;3.890;2024-02-28T08:12:32;27.75;;;14.45;;
81135;SDS011;70622;50.886;3.890;2024-02-28T08:14:57;34.65;;;15.18;;
81135;SDS011;70622;50.886;3.890;2024-02-28T08:17:23;29.58;;;15.23;;
81135;SDS011;70622;50.886;3.890;2024-02-28T08:19:49;28.40;;;14.82;;
81135;SDS011;70622;50.886;3.890;2024-02-28T08:22:15;28.30;;;14.75;;
81135;SDS011;70622;50.886;3.890;2024-02-28T08:24:40;28.38;;;13.52;;
81135;SDS011;70622;50.886;3.890;2024-02-28T08:27:06;27.23;;;13.65;;
81135;SDS011;70622;50.886;3.890;2024-02-28T08:29:32;28.75;;;15.15;;
81135;SDS011;70622;50.886;3.890;2024-02-28T08:32:00;28.48;;;14.93;;
81135;SDS011;70622;50.886;3.890;2024-02-28T08:34:26;29.67;;;13.75;;
81135;SDS011;70622;50.886;3.890;2024-02-28T08:36:51;26.55;;;13.98;;
81135;SDS011;70622;50.886;3.890;2024-02-28T08:39:17;25.30;;;13.52;;
81135;SDS011;70622;50.886;3.890;2024-02-28T08:41:43;25.80;;;14.20;;
81135;SDS011;70622;50.886;3.890;2024-02-28T08:44:09;22.00;;;12.52;;
81135;SDS011;70622;50.886;3.890;2024-02-28T08:46:34;27.67;;;13.27;;
81135;SDS011;70622;50.886;3.890;2024-02-28T08:49:03;22.25;;;12.68;;
81135;SDS011;70622;50.886;3.890;2024-02-28T08:51:28;22.63;;;12.98;;
81135;SDS011;70622;50.886;3.890;2024-02-28T08:53:54;24.48;;;12.82;;
81135;SDS011;70622;50.886;3.890;2024-02-28T08:56:21;23.00;;;12.88;;
81135;SDS011;70622;50.886;3.890;2024-02-28T08:58:46;27.27;;;12.80;;
81135;SDS011;70622;50.886;3.890;2024-02-28T09:01:14;22.60;;;12.70;;
81135;SDS011;70622;50.886;3.890;2024-02-28T09:03:40;25.83;;;13.48;;
81135;SDS011;70622;50.886;3.890;2024-02-28T09:06:07;25.23;;;12.30;;
81135;SDS011;70622;50.886;3.890;2024-02-28T09:08:33;20.98;;;11.15;;
81135;SDS011;70622;50.886;3.890;2024-02-28T09:10:58;23.38;;;12.27;;
81135;SDS011;70622;50.886;3.890;2024-02-28T09:13:25;23.08;;;11.05;;
81135;SDS011;70622;50.886;3.890;2024-02-28T09:15:51;25.58;;;12.18;;
81135;SDS011;70622;50.886;3.890;2024-02-28T09:18:20;18.95;;;11.50;;
81135;SDS011;70622;50.886;3.890;2024-02-28T09:20:46;20.48;;;12.35;;
81135;SDS011;70622;50.886;3.890;2024-02-28T09:23:12;23.23;;;11.55;;
81135;SDS011;70622;50.886;3.890;2024-02-28T09:25:39;20.38;;;11.75;;
81135;SDS011;70622;50.886;3.890;2024-02-28T09:28:05;21.73;;;12.90;;
81135;SDS011;70622;50.886;3.890;2024-02-28T09:30:31;23.05;;;11.77;;
81135;SDS011;70622;50.886;3.890;2024-02-28T09:32:57;19.40;;;10.55;;
81135;SDS011;70622;50.886;3.890;2024-02-28T09:35:23;19.92;;;11.55;;
81135;SDS011;70622;50.886;3.890;2024-02-28T09:37:49;18.27;;;10.65;;
81135;SDS011;70622;50.886;3.890;2024-02-28T09:40:15;21.85;;;11.45;;
81135;SDS011;70622;50.886;3.890;2024-02-28T09:42:41;19.95;;;10.32;;
81135;SDS011;70622;50.886;3.890;2024-02-28T09:45:08;22.25;;;10.88;;
81135;SDS011;70622;50.886;3.890;2024-02-28T09:47:36;17.17;;;10.32;;
81135;SDS011;70622;50.886;3.890;2024-02-28T09:50:02;18.67;;;9.88;;
81135;SDS011;70622;50.886;3.890;2024-02-28T09:52:29;14.77;;;9.00;;
81135;SDS011;70622;50.886;3.890;2024-02-28T09:54:54;20.00;;;10.48;;
81135;SDS011;70622;50.886;3.890;2024-02-28T09:57:20;17.30;;;9.18;;
81135;SDS011;70622;50.886;3.890;2024-02-28T09:59:53;18.23;;;9.80;;
81135;SDS011;70622;50.886;3.890;2024-02-28T10:02:20;18.30;;;10.07;;
81135;SDS011;70622;50.886;3.890;2024-02-28T10:04:48;18.05;;;10.55;;
81135;SDS011;70622;50.886;3.890;2024-02-28T10:07:14;19.77;;;11.55;;
81135;SDS011;70622;50.886;3.890;2024-02-28T10:09:40;21.70;;;11.15;;
81135;SDS011;70622;50.886;3.890;2024-02-28T10:12:06;20.70;;;10.80;;
81135;SDS011;70622;50.886;3.890;2024-02-28T10:14:32;19.55;;;10.57;;
81135;SDS011;70622;50.886;3.890;2024-02-28T10:16:58;17.13;;;10.65;;
81135;SDS011;70622;50.886;3.890;2024-02-28T10:19:24;19.20;;;10.77;;
81135;SDS011;70622;50.886;3.890;2024-02-28T10:21:50;21.05;;;11.00;;
81135;SDS011;70622;50.886;3.890;2024-02-28T10:24:16;19.20;;;11.05;;
81135;SDS011;70622;50.886;3.890;2024-02-28T10:26:43;17.08;;;10.65;;
81135;SDS011;70622;50.886;3.890;2024-02-28T10:29:10;17.80;;;10.23;;
81135;SDS011;70622;50.886;3.890;2024-02-28T10:31:36;14.80;;;8.85;;
81135;SDS011;70622;50.886;3.890;2024-02-28T10:34:03;17.15;;;9.45;;
81135;SDS011;70622;50.886;3.890;2024-02-28T10:36:31;15.88;;;8.98;;
81135;SDS011;70622;50.886;3.890;2024-02-28T10:38:57;18.33;;;9.32;;
81135;SDS011;70622;50.886;3.890;2024-02-28T10:41:25;16.50;;;9.20;;
81135;SDS011;70622;50.886;3.890;2024-02-28T10:43:53;17.23;;;9.73;;
81135;SDS011;70622;50.886;3.890;2024-02-28T10:46:19;18.88;;;9.70;;
81135;SDS011;70622;50.886;3.890;2024-02-28T10:48:46;17.33;;;9.27;;
81135;SDS011;70622;50.886;3.890;2024-02-28T10:51:15;13.98;;;8.23;;
81135;SDS011;70622;50.886;3.890;2024-02-28T10:56:11;17.10;;;9.13;;
81135;SDS011;70622;50.886;3.890;2024-02-28T10:58:43;15.73;;;9.82;;
81135;SDS011;70622;50.886;3.890;2024-02-28T11:01:16;14.88;;;8.85;;
81135;SDS011;70622;50.886;3.890;2024-02-28T11:03:42;16.67;;;8.73;;
81135;SDS011;70622;50.886;3.890;2024-02-28T11:06:17;16.00;;;9.20;;
81135;SDS011;70622;50.886;3.890;2024-02-28T11:08:46;16.77;;;9.50;;
81135;SDS011;70622;50.886;3.890;2024-02-28T11:11:20;20.67;;;9.70;;
81135;SDS011;70622;50.886;3.890;2024-02-28T11:14:33;17.67;;;9.25;;
81135;SDS011;70622;50.886;3.890;2024-02-28T11:17:09;15.30;;;9.45;;
81135;SDS011;70622;50.886;3.890;2024-02-28T11:19:50;19.45;;;10.18;;
81135;SDS011;70622;50.886;3.890;2024-02-28T11:23:05;15.27;;;8.90;;
81135;SDS011;70622;50.886;3.890;2024-02-28T11:25:55;17.80;;;9.38;;
81135;SDS011;70622;50.886;3.890;2024-02-28T11:29:08;15.43;;;8.85;;
81135;SDS011;70622;50.886;3.890;2024-02-28T11:47:44;19.38;;;9.73;;
81135;SDS011;70622;50.886;3.890;2024-02-28T13:09:36;14.52;;;6.57;;
81135;SDS011;70622;50.886;3.890;2024-02-28T13:12:02;14.30;;;5.75;;
81135;SDS011;70622;50.886;3.890;2024-02-28T13:14:29;10.70;;;5.60;;
81135;SDS011;70622;50.886;3.890;2024-02-28T13:16:55;10.75;;;6.13;;
81135;SDS011;70622;50.886;3.890;2024-02-28T13:19:20;9.88;;;4.90;;
81135;SDS011;70622;50.886;3.890;2024-02-28T13:21:46;8.57;;;5.18;;
81135;SDS011;70622;50.886;3.890;2024-02-28T13:24:12;16.75;;;6.13;;
81135;SDS011;70622;50.886;3.890;2024-02-28T13:26:40;11.13;;;6.22;;
81135;SDS011;70622;50.886;3.890;2024-02-28T13:29:06;11.32;;;5.05;;
81135;SDS011;70622;50.886;3.890;2024-02-28T13:31:32;9.48;;;5.55;;
81135;SDS011;70622;50.886;3.890;2024-02-28T13:33:58;12.70;;;6.10;;
81135;SDS011;70622;50.886;3.890;2024-02-28T13:36:25;10.68;;;5.28;;
81135;SDS011;70622;50.886;3.890;2024-02-28T13:38:51;10.65;;;5.55;;
81135;SDS011;70622;50.886;3.890;2024-02-28T13:41:17;8.70;;;5.68;;
81135;SDS011;70622;50.886;3.890;2024-02-28T13:43:42;8.07;;;4.85;;
81135;SDS011;70622;50.886;3.890;2024-02-28T13:46:08;8.73;;;4.70;;
81135;SDS011;70622;50.886;3.890;2024-02-28T13:48:36;10.10;;;5.30;;
81135;SDS011;70622;50.886;3.890;2024-02-28T13:51:01;7.75;;;4.93;;
81135;SDS011;70622;50.886;3.890;2024-02-28T13:53:27;8.07;;;4.63;;
81135;SDS011;70622;50.886;3.890;2024-02-28T13:55:53;7.68;;;4.65;;
81135;SDS011;70622;50.886;3.890;2024-02-28T13:58:18;7.15;;;4.57;;
81135;SDS011;70622;50.886;3.890;2024-02-28T14:00:44;7.57;;;4.82;;
81135;SDS011;70622;50.886;3.890;2024-02-28T14:03:10;6.35;;;3.80;;
81135;SDS011;70622;50.886;3.890;2024-02-28T14:05:36;6.90;;;4.57;;
81135;SDS011;70622;50.886;3.890;2024-02-28T14:08:02;6.63;;;4.65;;
81135;SDS011;70622;50.886;3.890;2024-02-28T14:10:29;6.80;;;5.25;;
81135;SDS011;70622;50.886;3.890;2024-02-28T14:12:55;6.53;;;4.32;;
81135;SDS011;70622;50.886;3.890;2024-02-28T14:15:21;5.13;;;3.75;;
81135;SDS011;70622;50.886;3.890;2024-02-28T14:17:47;7.78;;;3.65;;
81135;SDS011;70622;50.886;3.890;2024-02-28T14:20:13;6.95;;;3.70;;
81135;SDS011;70622;50.886;3.890;2024-02-28T14:22:39;4.57;;;3.38;;
81135;SDS011;70622;50.886;3.890;2024-02-28T14:25:10;4.55;;;3.13;;
81135;SDS011;70622;50.886;3.890;2024-02-28T14:27:37;4.22;;;3.13;;
81135;SDS011;70622;50.886;3.890;2024-02-28T14:30:04;5.55;;;3.00;;
81135;SDS011;70622;50.886;3.890;2024-02-28T14:32:33;3.90;;;3.20;;
81135;SDS011;70622;50.886;3.890;2024-02-28T14:34:59;5.20;;;2.70;;
81135;SDS011;70622;50.886;3.890;2024-02-28T14:37:24;3.90;;;2.45;;
81135;SDS011;70622;50.886;3.890;2024-02-28T14:39:50;4.13;;;2.67;;
81135;SDS011;70622;50.886;3.890;2024-02-28T14:42:16;5.28;;;2.70;;
81135;SDS011;70622;50.886;3.890;2024-02-28T14:44:42;4.57;;;2.30;;
81135;SDS011;70622;50.886;3.890;2024-02-28T14:47:08;3.60;;;2.88;;
81135;SDS011;70622;50.886;3.890;2024-02-28T14:49:34;3.42;;;2.40;;
81135;SDS011;70622;50.886;3.890;2024-02-28T14:51:59;4.13;;;2.72;;
81135;SDS011;70622;50.886;3.890;2024-02-28T14:54:25;4.18;;;2.97;;
81135;SDS011;70622;50.886;3.890;2024-02-28T14:56:52;5.97;;;2.70;;
81135;SDS011;70622;50.886;3.890;2024-02-28T14:59:17;5.28;;;2.90;;
81135;SDS011;70622;50.886;3.890;2024-02-28T15:01:43;4.22;;;3.00;;
81135;SDS011;70622;50.886;3.890;2024-02-28T15:04:09;5.57;;;2.30;;
81135;SDS011;70622;50.886;3.890;2024-02-28T15:06:34;5.60;;;2.72;;
81135;SDS011;70622;50.886;3.890;2024-02-28T15:09:00;4.10;;;2.60;;
81135;SDS011;70622;50.886;3.890;2024-02-28T15:11:28;4.95;;;2.63;;
81135;SDS011;70622;50.886;3.890;2024-02-28T15:13:54;3.88;;;3.00;;
81135;SDS011;70622;50.886;3.890;2024-02-28T15:16:19;6.15;;;3.58;;
81135;SDS011;70622;50.886;3.890;2024-02-28T15:18:45;6.85;;;3.15;;
81135;SDS011;70622;50.886;3.890;2024-02-28T15:21:10;5.10;;;3.92;;
81135;SDS011;70622;50.886;3.890;2024-02-28T15:23:36;6.43;;;3.75;;
81135;SDS011;70622;50.886;3.890;2024-02-28T15:26:02;4.97;;;3.35;;
81135;SDS011;70622;50.886;3.890;2024-02-28T15:28:28;5.72;;;3.00;;
81135;SDS011;70622;50.886;3.890;2024-02-28T15:30:55;5.00;;;2.95;;
81135;SDS011;70622;50.886;3.890;2024-02-28T15:33:21;6.18;;;3.22;;
81135;SDS011;70622;50.886;3.890;2024-02-28T15:35:46;6.18;;;3.38;;
81135;SDS011;70622;50.886;3.890;2024-02-28T15:38:13;6.70;;;3.55;;
81135;SDS011;70622;50.886;3.890;2024-02-28T15:40:38;5.38;;;3.40;;
81135;SDS011;70622;50.886;3.890;2024-02-28T15:43:04;4.75;;;3.47;;
81135;SDS011;70622;50.886;3.890;2024-02-28T15:45:30;6.10;;;3.40;;
81135;SDS011;70622;50.886;3.890;2024-02-28T15:47:56;6.63;;;3.53;;
81135;SDS011;70622;50.886;3.890;2024-02-28T15:50:22;6.85;;;3.80;;
81135;SDS011;70622;50.886;3.890;2024-02-28T15:52:49;6.57;;;4.13;;
81135;SDS011;70622;50.886;3.890;2024-02-28T15:55:14;5.93;;;3.65;;
81135;SDS011;70622;50.886;3.890;2024-02-28T15:57:44;8.30;;;3.92;;
81135;SDS011;70622;50.886;3.890;2024-02-28T16:00:10;10.65;;;3.78;;
81135;SDS011;70622;50.886;3.890;2024-02-28T16:02:36;6.75;;;3.60;;
81135;SDS011;70622;50.886;3.890;2024-02-28T16:05:02;6.05;;;3.95;;
81135;SDS011;70622;50.886;3.890;2024-02-28T16:07:29;7.72;;;3.65;;
81135;SDS011;70622;50.886;3.890;2024-02-28T16:09:55;7.32;;;4.03;;
81135;SDS011;70622;50.886;3.890;2024-02-28T16:12:21;8.57;;;4.30;;